sensor_id;sensor_type;location;lat;lon;timestamp;P1;durP1;ratioP1;P2;durP2;ratioP2
66143;SDS011;52947;50.842;6.084;2022-08-18T20:00:42;5.25;;;4.13;;
66143;SDS011;52947;50.842;6.084;2022-08-18T20:03:23;8.27;;;4.07;;
66143;SDS011;52947;50.842;6.084;2022-08-18T20:06:17;6.35;;;4.30;;
66143;SDS011;52947;50.842;6.084;2022-08-18T20:09:06;8.65;;;4.50;;
66143;SDS011;52947;50.842;6.084;2022-08-18T20:11:59;6.20;;;4.38;;
66143;SDS011;52947;50.842;6.084;2022-08-18T20:14:36;5.00;;;4.22;;
66143;SDS011;52947;50.842;6.084;2022-08-18T20:17:17;8.32;;;5.15;;
66143;SDS011;52947;50.842;6.084;2022-08-18T20:19:48;7.72;;;4.97;;
66143;SDS011;52947;50.842;6.084;2022-08-18T20:22:39;6.63;;;4.88;;
66143;SDS011;52947;50.842;6.084;2022-08-18T20:31:11;7.70;;;4.75;;
66143;SDS011;52947;50.842;6.084;2022-08-18T20:33:46;7.30;;;5.25;;
66143;SDS011;52947;50.842;6.084;2022-08-18T20:36:39;7.25;;;4.55;;
66143;SDS011;52947;50.842;6.084;2022-08-18T20:39:29;5.50;;;4.50;;
66143;SDS011;52947;50.842;6.084;2022-08-18T20:45:10;7.18;;;5.32;;
66143;SDS011;52947;50.842;6.084;2022-08-18T20:50:47;9.30;;;4.75;;
66143;SDS011;52947;50.842;6.084;2022-08-18T20:56:18;7.55;;;5.03;;
66143;SDS011;52947;50.842;6.084;2022-08-18T20:59:11;6.10;;;4.75;;
66143;SDS011;52947;50.842;6.084;2022-08-18T21:01:51;5.57;;;4.95;;
66143;SDS011;52947;50.842;6.084;2022-08-18T21:04:41;6.10;;;5.00;;
66143;SDS011;52947;50.842;6.084;2022-08-18T21:07:19;5.10;;;4.40;;
66143;SDS011;52947;50.842;6.084;2022-08-18T21:10:04;6.15;;;4.55;;
66143;SDS011;52947;50.842;6.084;2022-08-18T21:12:38;5.30;;;4.47;;
66143;SDS011;52947;50.842;6.084;2022-08-18T21:15:18;6.60;;;5.40;;
66143;SDS011;52947;50.842;6.084;2022-08-18T21:17:55;6.22;;;4.75;;
66143;SDS011;52947;50.842;6.084;2022-08-18T21:20:24;5.78;;;4.97;;
66143;SDS011;52947;50.842;6.084;2022-08-18T21:23:03;9.25;;;5.38;;
66143;SDS011;52947;50.842;6.084;2022-08-18T21:25:32;6.53;;;4.60;;
66143;SDS011;52947;50.842;6.084;2022-08-18T21:28:01;7.78;;;4.68;;
66143;SDS011;52947;50.842;6.084;2022-08-18T21:30:32;6.07;;;4.63;;
66143;SDS011;52947;50.842;6.084;2022-08-18T21:33:00;9.02;;;4.43;;
66143;SDS011;52947;50.842;6.084;2022-08-18T21:35:45;6.18;;;4.95;;
66143;SDS011;52947;50.842;6.084;2022-08-18T21:38:17;5.65;;;4.75;;
66143;SDS011;52947;50.842;6.084;2022-08-18T21:40:53;7.18;;;4.80;;
66143;SDS011;52947;50.842;6.084;2022-08-18T21:43:35;6.30;;;4.90;;
66143;SDS011;52947;50.842;6.084;2022-08-18T21:46:19;8.20;;;5.47;;
66143;SDS011;52947;50.842;6.084;2022-08-18T21:48:50;5.88;;;4.80;;
66143;SDS011;52947;50.842;6.084;2022-08-18T21:51:21;7.07;;;5.03;;
66143;SDS011;52947;50.842;6.084;2022-08-18T21:53:53;7.90;;;5.40;;
66143;SDS011;52947;50.842;6.084;2022-08-18T21:56:25;6.93;;;4.65;;
66143;SDS011;52947;50.842;6.084;2022-08-18T21:59:03;7.18;;;5.18;;
66143;SDS011;52947;50.842;6.084;2022-08-18T22:01:33;6.97;;;5.63;;
66143;SDS011;52947;50.842;6.084;2022-08-18T22:04:03;6.57;;;5.38;;
66143;SDS011;52947;50.842;6.084;2022-08-18T22:06:48;8.82;;;4.85;;
66143;SDS011;52947;50.842;6.084;2022-08-18T22:09:20;8.00;;;5.57;;
66143;SDS011;52947;50.842;6.084;2022-08-18T22:12:24;7.07;;;5.50;;
66143;SDS011;52947;50.842;6.084;2022-08-18T22:15:14;7.15;;;5.20;;
66143;SDS011;52947;50.842;6.084;2022-08-18T22:17:51;6.47;;;5.32;;
66143;SDS011;52947;50.842;6.084;2022-08-18T22:20:31;9.30;;;7.97;;
66143;SDS011;52947;50.842;6.084;2022-08-18T22:23:25;8.07;;;6.90;;
66143;SDS011;52947;50.842;6.084;2022-08-18T22:26:18;9.05;;;7.45;;
66143;SDS011;52947;50.842;6.084;2022-08-18T22:28:56;6.85;;;5.43;;
66143;SDS011;52947;50.842;6.084;2022-08-18T22:31:28;8.77;;;6.13;;
66143;SDS011;52947;50.842;6.084;2022-08-18T22:33:59;9.10;;;7.80;;
66143;SDS011;52947;50.842;6.084;2022-08-18T22:36:32;8.60;;;6.82;;
66143;SDS011;52947;50.842;6.084;2022-08-18T22:39:04;6.10;;;5.07;;
66143;SDS011;52947;50.842;6.084;2022-08-18T22:41:35;7.47;;;6.13;;
66143;SDS011;52947;50.842;6.084;2022-08-18T22:44:04;7.47;;;6.40;;
66143;SDS011;52947;50.842;6.084;2022-08-18T22:46:32;8.18;;;7.03;;
66143;SDS011;52947;50.842;6.084;2022-08-18T22:49:01;12.48;;;7.97;;
66143;SDS011;52947;50.842;6.084;2022-08-18T22:51:29;7.70;;;6.90;;
66143;SDS011;52947;50.842;6.084;2022-08-18T22:54:03;7.45;;;5.75;;
66143;SDS011;52947;50.842;6.084;2022-08-18T22:56:33;7.30;;;6.20;;
66143;SDS011;52947;50.842;6.084;2022-08-18T22:59:05;8.65;;;7.13;;
66143;SDS011;52947;50.842;6.084;2022-08-18T23:01:41;8.48;;;6.90;;
66143;SDS011;52947;50.842;6.084;2022-08-18T23:04:10;8.80;;;6.40;;
66143;SDS011;52947;50.842;6.084;2022-08-18T23:06:41;8.90;;;6.85;;
66143;SDS011;52947;50.842;6.084;2022-08-18T23:09:18;9.23;;;6.10;;
66143;SDS011;52947;50.842;6.084;2022-08-18T23:11:47;7.70;;;5.90;;
66143;SDS011;52947;50.842;6.084;2022-08-18T23:14:16;23.05;;;7.15;;
66143;SDS011;52947;50.842;6.084;2022-08-18T23:16:45;8.35;;;6.93;;
66143;SDS011;52947;50.842;6.084;2022-08-18T23:19:13;10.32;;;7.90;;
66143;SDS011;52947;50.842;6.084;2022-08-18T23:21:42;8.13;;;6.78;;
66143;SDS011;52947;50.842;6.084;2022-08-18T23:24:12;10.95;;;6.10;;
66143;SDS011;52947;50.842;6.084;2022-08-18T23:26:41;12.43;;;8.60;;
66143;SDS011;52947;50.842;6.084;2022-08-18T23:29:09;8.95;;;8.05;;
66143;SDS011;52947;50.842;6.084;2022-08-18T23:31:39;11.38;;;9.93;;
66143;SDS011;52947;50.842;6.084;2022-08-18T23:34:08;8.90;;;7.43;;
66143;SDS011;52947;50.842;6.084;2022-08-18T23:36:38;10.63;;;7.20;;
66143;SDS011;52947;50.842;6.084;2022-08-18T23:39:11;9.70;;;7.32;;
66143;SDS011;52947;50.842;6.084;2022-08-18T23:41:39;9.57;;;7.88;;
66143;SDS011;52947;50.842;6.084;2022-08-18T23:44:07;8.63;;;7.50;;
66143;SDS011;52947;50.842;6.084;2022-08-18T23:46:35;13.38;;;10.13;;
66143;SDS011;52947;50.842;6.084;2022-08-18T23:49:06;10.43;;;9.35;;
66143;SDS011;52947;50.842;6.084;2022-08-18T23:51:37;9.48;;;7.95;;
66143;SDS011;52947;50.842;6.084;2022-08-18T23:54:11;14.93;;;12.55;;
66143;SDS011;52947;50.842;6.084;2022-08-18T23:56:42;10.60;;;8.75;;
66143;SDS011;52947;50.842;6.084;2022-08-18T23:59:11;12.95;;;10.45;;
